Time;durP1;ratioP1;P1;durP2;ratioP2;P2;SDS_P1;SDS_P2;PMS_P1;PMS_P2;Temp;Humidity;BMP_temperature;BMP_pressure;BME280_temperature;BME280_humidity;BME280_pressure;Samples;Min_cycle;Max_cycle;Signal;HPM_P1;HPM_P2
2023/01/11 00:00:34;;;;;;;0.10;0.00;;;0.20;77.90;;;;;;20985560;28;20037;-59
2023/01/11 00:10:36;;;;;;;0.10;0.00;;;0.50;76.90;;;;;;20907866;28;20485;-61
2023/01/11 00:20:40;;;;;;;0.00;0.00;;;0.60;74.90;;;;;;20904837;28;20440;-60
2023/01/11 00:30:42;;;;;;;0.00;0.00;;;0.60;77.40;;;;;;20904835;28;20103;-60
2023/01/11 00:40:43;;;;;;;0.03;0.00;;;0.40;75.50;;;;;;20886629;28;20557;-59
2023/01/11 00:50:45;;;;;;;1.55;0.00;;;0.40;76.40;;;;;;20903231;28;20048;-61
2023/01/11 01:00:47;;;;;;;0.00;0.00;;;0.30;78.10;;;;;;20903102;28;20053;-59
2023/01/11 01:10:51;;;;;;;0.55;0.00;;;0.30;77.90;;;;;;20903263;28;20474;-60
2023/01/11 01:20:52;;;;;;;0.00;0.00;;;0.40;75.70;;;;;;20949914;28;20025;-61
2023/01/11 01:30:54;;;;;;;0.63;0.00;;;0.50;75.40;;;;;;20985128;28;20035;-60
2023/01/11 01:40:55;;;;;;;0.13;0.00;;;0.90;72.20;;;;;;20926404;28;20036;-60
2023/01/11 01:50:59;;;;;;;0.00;0.00;;;1.00;72.70;;;;;;20901277;28;20068;-60
2023/01/11 02:01:45;;;;;;;0.00;0.00;;;0.50;78.10;;;;;;20900908;28;20037;-59
2023/01/11 02:11:29;;;;;;;0.00;0.00;;;0.10;82.80;;;;;;20916089;28;20458;-60
2023/01/11 02:22:11;;;;;;;0.10;0.00;;;-0.40;85.10;;;;;;20914226;28;20507;-60
2023/01/11 02:32:22;;;;;;;0.00;0.00;;;-0.30;84.60;;;;;;20914252;28;20041;-59
2023/01/11 02:53:24;;;;;;;0.10;0.00;;;0.40;80.20;;;;;;20912238;28;20450;-60
2023/01/11 03:03:29;;;;;;;0.00;0.00;;;0.60;79.00;;;;;;20922581;28;20044;-61
2023/01/11 03:13:53;;;;;;;0.00;0.00;;;0.80;76.70;;;;;;20977268;28;20106;-60
2023/01/11 03:24:12;;;;;;;0.00;0.00;;;1.00;76.60;;;;;;20974457;28;20040;-60
2023/01/11 03:34:37;;;;;;;0.00;0.00;;;0.90;79.10;;;;;;20957472;28;20020;-59
2023/01/11 03:44:43;;;;;;;0.10;0.00;;;0.70;80.60;;;;;;20894934;28;20078;-60
2023/01/11 03:54:45;;;;;;;0.00;0.00;;;0.40;86.60;;;;;;20987731;28;20111;-60
2023/01/11 04:04:47;;;;;;;0.08;0.00;;;0.20;85.20;;;;;;20989540;28;20024;-59
2023/01/11 04:14:48;;;;;;;0.00;0.00;;;0.10;86.30;;;;;;20982273;28;20079;-60
2023/01/11 04:24:50;;;;;;;0.10;0.00;;;-0.10;86.30;;;;;;20985117;28;20047;-60
2023/01/11 04:34:51;;;;;;;0.00;0.00;;;-0.10;84.00;;;;;;20979358;28;20442;-61
2023/01/11 04:44:53;;;;;;;0.00;0.00;;;-0.20;87.30;;;;;;20886543;28;20033;-61
2023/01/11 04:54:54;;;;;;;0.00;0.00;;;-0.30;87.40;;;;;;20826104;28;20411;-59
2023/01/11 05:04:56;;;;;;;0.03;0.00;;;-0.40;89.60;;;;;;20925787;28;20064;-61
2023/01/11 05:14:58;;;;;;;0.00;0.00;;;-0.40;87.70;;;;;;20985224;28;20029;-61
2023/01/11 05:24:59;;;;;;;0.30;0.00;;;-0.40;83.40;;;;;;20983669;28;20082;-60
2023/01/11 05:35:01;;;;;;;0.10;0.00;;;-0.20;87.00;;;;;;20974568;28;20086;-60
2023/01/11 05:55:23;;;;;;;0.10;0.00;;;-0.10;86.30;;;;;;20833675;28;20054;-61
2023/01/11 06:05:24;;;;;;;0.38;0.00;;;0.00;80.60;;;;;;20921130;28;20385;-60
2023/01/11 06:15:26;;;;;;;0.10;0.00;;;0.60;79.60;;;;;;20988378;28;20021;-61
2023/01/11 06:25:29;;;;;;;0.00;0.00;;;0.50;81.00;;;;;;20996433;28;20036;-60
2023/01/11 06:35:40;;;;;;;0.10;0.00;;;0.20;84.50;;;;;;20950608;28;20480;-59
2023/01/11 06:45:42;;;;;;;;;;;-0.10;81.90;;;;;;20896907;28;20037;-61
2023/01/11 06:55:44;;;;;;;0.20;0.00;;;0.10;83.70;;;;;;20907356;28;19970;-60
2023/01/11 07:05:45;;;;;;;0.00;0.00;;;0.00;84.80;;;;;;20909021;28;20028;-60
2023/01/11 07:15:49;;;;;;;0.13;0.00;;;0.00;82.70;;;;;;20909986;28;20025;-61
2023/01/11 07:25:51;;;;;;;0.00;0.00;;;0.20;83.40;;;;;;20891346;28;20032;-61
2023/01/11 07:35:53;;;;;;;0.00;0.00;;;0.30;83.50;;;;;;20904266;28;20070;-59
2023/01/11 07:45:56;;;;;;;0.00;0.00;;;0.50;84.30;;;;;;20914076;28;20032;-60
2023/01/11 07:55:57;;;;;;;0.00;0.00;;;0.90;83.60;;;;;;20971677;28;20052;-60
2023/01/11 08:05:59;;;;;;;0.10;0.00;;;1.40;82.80;;;;;;20987942;28;20033;-60
2023/01/11 08:16:01;;;;;;;0.25;0.00;;;2.20;80.70;;;;;;20980214;28;20462;-60
2023/01/11 08:26:02;;;;;;;0.00;0.00;;;2.80;83.30;;;;;;20969677;28;20040;-60
2023/01/11 08:36:05;;;;;;;0.00;0.00;;;3.10;83.60;;;;;;20968494;28;20079;-61
2023/01/11 08:46:10;;;;;;;0.20;0.10;;;3.80;77.50;;;;;;20903446;28;20025;-61
2023/01/11 08:56:12;;;;;;;0.10;0.10;;;4.50;73.90;;;;;;20902689;28;20102;-61
2023/01/11 09:06:14;;;;;;;0.00;0.00;;;5.10;71.30;;;;;;20952834;28;20036;-61
2023/01/11 09:16:15;;;;;;;0.00;0.00;;;5.80;67.90;;;;;;20945995;28;20098;-61
2023/01/11 09:26:17;;;;;;;0.13;0.00;;;6.30;70.60;;;;;;21001551;28;20040;-61
2023/01/11 09:36:20;;;;;;;0.10;0.00;;;6.40;69.00;;;;;;20980409;28;20032;-60
2023/01/11 09:46:24;;;;;;;0.00;0.00;;;7.00;67.40;;;;;;20927849;28;20044;-60
2023/01/11 09:56:32;;;;;;;0.15;0.00;;;7.50;63.00;;;;;;20999175;28;20141;-60
2023/01/11 10:06:41;;;;;;;0.08;0.00;;;8.00;64.80;;;;;;20944329;28;20029;-60
2023/01/11 10:17:05;;;;;;;0.75;0.00;;;8.30;68.00;;;;;;20927929;28;20044;-60
2023/01/11 10:27:20;;;;;;;0.22;0.10;;;7.90;66.80;;;;;;20996368;28;20093;-60
2023/01/11 10:48:11;;;;;;;0.10;0.00;;;7.60;68.00;;;;;;20900840;28;20033;-60
2023/01/11 10:58:30;;;;;;;0.30;0.10;;;7.70;68.10;;;;;;20911696;28;20041;-60
2023/01/11 11:09:08;;;;;;;1.60;0.00;;;7.60;69.00;;;;;;20980374;28;20041;-60
2023/01/11 11:19:15;;;;;;;0.50;0.10;;;8.00;71.30;;;;;;20960171;28;20363;-60
2023/01/11 11:29:22;;;;;;;0.75;0.05;;;8.10;70.30;;;;;;20909628;28;20091;-60
2023/01/11 11:39:30;;;;;;;0.45;0.13;;;8.30;68.80;;;;;;20908239;28;20391;-60
2023/01/11 11:49:34;;;;;;;0.65;0.30;;;8.30;72.90;;;;;;20944223;28;20059;-59
2023/01/11 11:59:36;;;;;;;0.32;0.20;;;7.90;71.30;;;;;;20990954;28;20055;-60
2023/01/11 12:09:45;;;;;;;0.43;0.22;;;7.70;73.80;;;;;;20970643;28;20032;-60
2023/01/11 12:19:47;;;;;;;0.40;0.25;;;7.60;69.30;;;;;;20978776;28;20043;-60
2023/01/11 12:29:51;;;;;;;0.65;0.30;;;7.30;75.90;;;;;;20987676;28;20028;-60
2023/01/11 12:40:12;;;;;;;1.40;0.40;;;7.20;75.80;;;;;;20936953;28;20041;-61
2023/01/11 12:50:23;;;;;;;0.95;0.20;;;7.00;72.60;;;;;;20909427;28;20078;-60
2023/01/11 13:00:33;;;;;;;0.50;0.20;;;7.00;73.50;;;;;;20902413;28;20094;-60
2023/01/11 13:10:45;;;;;;;2.15;0.30;;;6.90;78.60;;;;;;20903668;28;20497;-61
2023/01/11 13:21:19;;;;;;;0.85;0.40;;;6.80;77.50;;;;;;20865780;28;20025;-61
2023/01/11 13:31:22;;;;;;;1.75;0.30;;;6.40;80.60;;;;;;20833047;28;20044;-60
2023/01/11 13:41:32;;;;;;;1.13;0.30;;;5.70;78.60;;;;;;20921992;28;20036;-59
2023/01/11 13:51:36;;;;;;;1.30;0.33;;;5.50;83.10;;;;;;20926635;28;20450;-60
2023/01/11 14:02:03;;;;;;;1.27;0.40;;;5.30;80.10;;;;;;20976834;28;20041;-61
2023/01/11 14:12:04;;;;;;;2.25;0.50;;;5.30;82.20;;;;;;20915357;28;20044;-61
2023/01/11 14:22:28;;;;;;;1.08;0.20;;;5.20;80.60;;;;;;20972099;28;20458;-61
2023/01/11 14:33:01;;;;;;;0.40;0.20;;;5.10;81.20;;;;;;20978488;28;20036;-61
2023/01/11 14:43:21;;;;;;;3.67;0.57;;;4.90;87.70;;;;;;20920097;28;20087;-61
2023/01/11 14:53:29;;;;;;;1.10;0.30;;;4.60;88.20;;;;;;20918635;28;20036;-61
2023/01/11 15:03:55;;;;;;;0.70;0.20;;;4.10;84.90;;;;;;20857196;28;20045;-61
2023/01/11 15:14:04;;;;;;;0.75;0.20;;;3.80;85.90;;;;;;20892836;28;20068;-62
2023/01/11 15:24:18;;;;;;;1.05;0.30;;;3.50;90.40;;;;;;20909378;28;20079;-61
2023/01/11 15:34:38;;;;;;;0.30;0.10;;;3.10;91.00;;;;;;20904929;28;20080;-61
2023/01/11 15:44:52;;;;;;;7.35;2.00;;;2.70;93.40;;;;;;20807800;28;20037;-61
2023/01/11 15:54:57;;;;;;;3.90;1.95;;;2.20;93.90;;;;;;20834414;28;20049;-61
2023/01/11 16:05:10;;;;;;;0.17;0.10;;;1.90;93.30;;;;;;20906291;28;20389;-61
2023/01/11 16:15:29;;;;;;;0.30;0.00;;;1.60;93.50;;;;;;20902859;28;20037;-61
2023/01/11 16:25:37;;;;;;;0.30;0.03;;;1.50;92.90;;;;;;20968395;28;20033;-61
2023/01/11 16:35:38;;;;;;;1.50;0.40;;;1.50;93.00;;;;;;20918069;28;20389;-61
2023/01/11 16:45:43;;;;;;;0.40;0.20;;;1.40;92.30;;;;;;20962472;28;20036;-61
2023/01/11 16:56:17;;;;;;;0.38;0.10;;;1.30;92.90;;;;;;20939402;28;20560;-61
2023/01/11 17:06:23;;;;;;;1.33;0.40;;;1.20;92.70;;;;;;20953989;28;20041;-61
2023/01/11 17:16:34;;;;;;;1.67;0.20;;;1.10;93.20;;;;;;20984991;28;20032;-61
2023/01/11 17:26:39;;;;;;;;;;;1.20;93.20;;;;;;20967388;28;20485;-61
2023/01/11 17:36:42;;;;;;;1.10;0.30;;;1.20;93.90;;;;;;20941675;28;19916;-61
2023/01/11 17:46:45;;;;;;;1.27;0.50;;;1.40;93.20;;;;;;20930949;28;20028;-61
2023/01/11 17:56:55;;;;;;;1.00;0.30;;;1.60;92.00;;;;;;20969025;28;20033;-61
2023/01/11 18:07:35;;;;;;;0.50;0.40;;;1.70;91.10;;;;;;20915084;28;20056;-61
2023/01/11 18:17:39;;;;;;;1.65;0.50;;;1.90;92.50;;;;;;20897588;28;20040;-61
2023/01/11 18:27:45;;;;;;;1.73;0.50;;;1.90;90.60;;;;;;20914409;28;20091;-61
2023/01/11 18:37:47;;;;;;;0.63;0.30;;;1.90;89.20;;;;;;20913142;28;20040;-61
2023/01/11 18:47:48;;;;;;;0.70;0.30;;;1.80;92.30;;;;;;20934581;28;20040;-61
2023/01/11 18:57:50;;;;;;;0.82;0.30;;;1.80;93.00;;;;;;20994489;28;20113;-61
2023/01/11 19:07:51;;;;;;;0.55;0.30;;;1.90;85.70;;;;;;20993190;28;20036;-61
2023/01/11 19:17:53;;;;;;;0.10;0.10;;;2.30;91.10;;;;;;20984028;28;20032;-61
2023/01/11 19:27:55;;;;;;;0.20;0.00;;;2.20;89.90;;;;;;20992422;28;20032;-61
2023/01/11 19:37:56;;;;;;;0.85;0.03;;;2.30;90.00;;;;;;20957660;28;20029;-61
2023/01/11 19:47:58;;;;;;;0.28;0.10;;;2.30;84.70;;;;;;20931531;28;20493;-61
2023/01/11 19:58:01;;;;;;;0.80;0.20;;;2.60;88.10;;;;;;20966939;28;20041;-61
2023/01/11 20:08:03;;;;;;;0.15;0.10;;;2.50;85.00;;;;;;20971970;28;20086;-61
2023/01/11 20:18:04;;;;;;;0.50;0.00;;;2.90;78.50;;;;;;20988093;28;20028;-61
2023/01/11 20:28:06;;;;;;;0.20;0.10;;;3.00;84.60;;;;;;20958133;28;20037;-61
2023/01/11 20:38:08;;;;;;;1.15;0.10;;;2.70;87.30;;;;;;20935023;28;20052;-61
2023/01/11 20:48:10;;;;;;;0.90;0.10;;;2.50;89.50;;;;;;20929038;28;20032;-61
2023/01/11 20:58:12;;;;;;;2.92;0.10;;;2.50;87.10;;;;;;20985592;28;20075;-61
2023/01/11 21:08:14;;;;;;;0.43;0.05;;;2.70;84.80;;;;;;20895911;28;20033;-61
2023/01/11 21:18:15;;;;;;;0.40;0.00;;;2.80;89.40;;;;;;20902483;28;20386;-60
2023/01/11 21:28:17;;;;;;;0.10;0.00;;;3.20;91.10;;;;;;20884405;28;20045;-61
2023/01/11 21:38:19;;;;;;;0.10;0.05;;;4.00;97.40;;;;;;20897217;28;20079;-61
2023/01/11 21:48:21;;;;;;;0.20;0.10;;;2.60;99.90;;;;;;20927775;28;20032;-68
2023/01/11 21:58:23;;;;;;;0.20;0.10;;;1.50;99.90;;;;;;20982947;28;20071;-61
2023/01/11 22:08:25;;;;;;;0.20;0.10;;;1.10;99.90;;;;;;20913175;28;20083;-60
2023/01/11 22:18:27;;;;;;;0.00;0.00;;;1.10;99.90;;;;;;20899545;28;20040;-61
2023/01/11 22:28:29;;;;;;;0.13;0.08;;;1.40;99.90;;;;;;20896299;28;20098;-61
2023/01/11 22:38:31;;;;;;;1.85;0.00;;;1.80;99.90;;;;;;20944343;28;20036;-63
2023/01/11 22:48:33;;;;;;;0.10;0.00;;;2.30;99.90;;;;;;20942244;28;20485;-62
2023/01/11 22:58:35;;;;;;;0.00;0.00;;;2.90;99.90;;;;;;20963711;28;20878;-61
2023/01/11 23:08:41;;;;;;;0.50;0.10;;;3.10;99.90;;;;;;20897335;28;20090;-61
2023/01/11 23:18:43;;;;;;;0.85;0.20;;;2.70;99.90;;;;;;20940463;28;20662;-61
2023/01/11 23:28:45;;;;;;;0.73;0.20;;;2.00;99.90;;;;;;20991905;28;20024;-60
2023/01/11 23:38:48;;;;;;;0.93;0.20;;;1.70;99.90;;;;;;20932826;28;20033;-62
2023/01/11 23:48:50;;;;;;;1.88;0.40;;;1.40;99.90;;;;;;20907983;28;20033;-61
2023/01/11 23:58:52;;;;;;;0.77;0.28;;;1.20;99.90;;;;;;20906809;28;20045;-60
